Time;durP1;ratioP1;P1;durP2;ratioP2;P2;SDS_P1;SDS_P2;PMS_P1;PMS_P2;Temp;Humidity;BMP_temperature;BMP_pressure;BME280_temperature;BME280_humidity;BME280_pressure;Samples;Min_cycle;Max_cycle;Signal;HPM_P1;HPM_P2
2022/01/06 00:04:22;;;;;;;18.70;3.08;;;;;;;1.85;100.00;101507.31;5031126;28;20394;-60
2022/01/06 00:06:47;;;;;;;16.93;3.67;;;;;;;1.87;100.00;101513.41;5029877;28;20045;-61
2022/01/06 00:09:16;;;;;;;14.57;3.57;;;;;;;1.87;100.00;101515.09;5021755;28;20033;-60
2022/01/06 00:11:42;;;;;;;13.73;3.60;;;;;;;1.84;100.00;101518.28;5029254;28;20048;-61
2022/01/06 00:14:18;;;;;;;11.50;3.20;;;;;;;1.82;100.00;101512.16;5025833;28;20125;-61
2022/01/06 00:17:03;;;;;;;13.90;4.60;;;;;;;1.80;100.00;101516.25;5031317;28;20123;-60
2022/01/06 00:24:56;;;;;;;17.60;4.07;;;;;;;1.73;100.00;101511.44;5027128;28;20048;-61
2022/01/06 00:27:21;;;;;;;11.53;3.37;;;;;;;1.67;100.00;101517.84;5030844;28;20453;-59
2022/01/06 00:29:46;;;;;;;18.37;3.70;;;;;;;1.67;100.00;101525.50;5030912;28;20496;-61
2022/01/06 00:32:12;;;;;;;13.90;3.97;;;;;;;1.65;100.00;101527.09;5028023;28;20115;-60
2022/01/06 00:34:37;;;;;;;16.10;3.47;;;;;;;1.66;100.00;101527.94;5021177;28;20037;-61
2022/01/06 00:37:03;;;;;;;17.47;3.67;;;;;;;1.65;100.00;101526.19;5026412;28;20076;-62
2022/01/06 00:39:28;;;;;;;17.67;3.97;;;;;;;1.64;100.00;101527.84;5024747;28;20036;-60
2022/01/06 00:42:01;;;;;;;13.33;3.47;;;;;;;1.61;100.00;101529.25;5030836;28;20029;-61
2022/01/06 00:44:27;;;;;;;13.60;3.47;;;;;;;1.59;100.00;101541.00;5026628;28;20025;-60
2022/01/06 00:46:53;;;;;;;16.03;3.40;;;;;;;1.52;100.00;101540.53;5026732;28;20181;-61
2022/01/06 00:49:20;;;;;;;17.67;3.80;;;;;;;1.49;100.00;101545.41;5028560;28;20033;-61
2022/01/06 00:51:45;;;;;;;17.50;3.73;;;;;;;1.48;100.00;101540.16;5026549;28;20041;-61
2022/01/06 00:54:11;;;;;;;12.20;3.30;;;;;;;1.44;100.00;101539.91;5027598;28;20055;-60
2022/01/06 00:56:36;;;;;;;13.67;4.00;;;;;;;1.44;100.00;101531.34;5030834;28;20029;-61
2022/01/06 00:59:02;;;;;;;17.50;4.30;;;;;;;1.43;100.00;101533.03;5030592;28;20060;-60
2022/01/06 01:01:27;;;;;;;13.67;3.80;;;;;;;1.48;100.00;101537.59;5023454;28;20084;-60
2022/01/06 01:03:53;;;;;;;21.13;4.37;;;;;;;1.46;100.00;101539.16;5030273;28;20644;-61
2022/01/06 01:06:19;;;;;;;19.50;4.30;;;;;;;1.48;100.00;101537.59;5028493;28;20036;-61
2022/01/06 01:08:44;;;;;;;24.47;5.17;;;;;;;1.49;100.00;101544.50;5025399;28;20033;-60
2022/01/06 01:11:09;;;;;;;20.03;4.50;;;;;;;1.50;100.00;101541.16;5028688;28;20487;-61
2022/01/06 01:13:43;;;;;;;19.97;4.57;;;;;;;1.50;100.00;101553.94;5029469;28;20160;-61
2022/01/06 01:16:21;;;;;;;20.57;4.80;;;;;;;1.49;100.00;101544.50;5029810;28;20117;-59
2022/01/06 01:18:46;;;;;;;18.60;4.20;;;;;;;1.48;100.00;101543.59;5023616;28;20084;-61
2022/01/06 01:21:12;;;;;;;10.90;3.33;;;;;;;1.50;100.00;101546.28;5023506;28;20076;-60
2022/01/06 01:23:38;;;;;;;14.53;4.03;;;;;;;1.48;100.00;101542.69;5029847;28;20447;-61
2022/01/06 01:26:03;;;;;;;14.13;3.13;;;;;;;1.48;100.00;101555.47;5029929;28;20402;-60
2022/01/06 01:28:33;;;;;;;15.13;3.70;;;;;;;1.44;100.00;101552.69;5030029;28;20036;-61
2022/01/06 01:31:23;;;;;;;14.45;3.65;;;;;;;1.39;100.00;101548.88;5023139;28;20072;-61
2022/01/06 01:33:51;;;;;;;11.67;2.67;;;;;;;1.32;100.00;101546.56;5029701;28;20155;-60
2022/01/06 01:36:16;;;;;;;13.77;4.07;;;;;;;1.30;100.00;101556.69;5029760;28;20438;-61
2022/01/06 01:38:42;;;;;;;17.37;3.53;;;;;;;1.26;100.00;101558.88;5044333;28;20159;-60
2022/01/06 01:41:09;;;;;;;16.03;4.07;;;;;;;1.23;100.00;101567.16;5024297;28;20378;-60
2022/01/06 01:43:35;;;;;;;17.43;3.40;;;;;;;1.22;100.00;101567.03;5023221;28;20120;-61
2022/01/06 01:46:09;;;;;;;15.33;3.73;;;;;;;1.17;100.00;101570.09;5029595;28;20442;-60
2022/01/06 01:48:37;;;;;;;17.10;3.43;;;;;;;1.12;100.00;101581.59;5024825;28;20546;-61
2022/01/06 01:51:03;;;;;;;12.90;3.27;;;;;;;1.07;100.00;101577.78;5028250;28;20029;-61
2022/01/06 01:53:29;;;;;;;12.90;4.20;;;;;;;1.04;100.00;101590.28;5029693;28;20025;-61
2022/01/06 01:55:54;;;;;;;17.43;3.73;;;;;;;1.04;100.00;101598.81;5016125;28;20590;-61
2022/01/06 01:58:20;;;;;;;13.37;3.37;;;;;;;1.01;100.00;101600.25;5024056;28;20032;-59
2022/01/06 02:00:45;;;;;;;13.83;3.33;;;;;;;0.98;100.00;101605.09;5029160;28;20032;-61
2022/01/06 02:03:11;;;;;;;16.20;3.97;;;;;;;0.99;100.00;101606.88;5029309;28;20033;-61
2022/01/06 02:05:36;;;;;;;11.33;3.10;;;;;;;0.97;100.00;101608.41;5029305;28;20086;-61
2022/01/06 02:08:02;;;;;;;20.13;3.60;;;;;;;0.97;100.00;101613.53;5020451;28;20132;-61
2022/01/06 02:10:29;;;;;;;15.50;3.83;;;;;;;0.93;100.00;101610.72;5029347;28;20025;-60
2022/01/06 02:12:56;;;;;;;15.17;3.73;;;;;;;0.95;100.00;101608.28;5029042;28;20036;-60
2022/01/06 02:15:22;;;;;;;14.33;3.60;;;;;;;0.89;100.00;101611.22;5019349;28;20037;-61
2022/01/06 02:17:50;;;;;;;16.30;4.30;;;;;;;0.83;100.00;101616.69;5020506;28;20029;-60
2022/01/06 02:20:17;;;;;;;11.37;3.50;;;;;;;0.78;100.00;101617.06;5028608;28;20029;-61
2022/01/06 02:22:44;;;;;;;11.60;3.77;;;;;;;0.75;100.00;101616.81;5021030;28;20088;-61
2022/01/06 02:25:11;;;;;;;14.83;3.67;;;;;;;0.73;100.00;101619.25;5022699;28;20045;-60
2022/01/06 02:27:36;;;;;;;9.63;3.20;;;;;;;0.69;100.00;101618.09;5028710;28;20053;-61
2022/01/06 02:30:02;;;;;;;12.40;3.37;;;;;;;0.67;100.00;101614.50;5029229;28;20096;-61
2022/01/06 02:32:27;;;;;;;11.17;3.07;;;;;;;0.63;100.00;101621.78;5023560;28;20081;-59
2022/01/06 02:34:53;;;;;;;19.77;3.57;;;;;;;0.62;100.00;101620.88;5029055;28;20417;-61
2022/01/06 02:37:18;;;;;;;10.27;3.30;;;;;;;0.59;100.00;101620.63;5025056;28;20026;-61
2022/01/06 02:39:44;;;;;;;12.10;3.13;;;;;;;0.58;100.00;101617.16;5015687;28;20064;-60
2022/01/06 02:42:10;;;;;;;11.90;3.30;;;;;;;0.60;100.00;101617.31;5012145;28;20117;-61
2022/01/06 02:44:38;;;;;;;17.47;4.67;;;;;;;0.61;100.00;101616.56;5022233;28;20025;-60
2022/01/06 02:47:05;;;;;;;18.03;4.53;;;;;;;0.60;100.00;101622.41;5028951;28;20025;-60
2022/01/06 02:49:30;;;;;;;13.07;2.97;;;;;;;0.55;100.00;101618.56;5018942;28;20025;-60
2022/01/06 02:51:56;;;;;;;14.03;3.27;;;;;;;0.53;100.00;101617.53;5020473;28;20068;-60
2022/01/06 02:54:21;;;;;;;13.60;3.60;;;;;;;0.53;100.00;101614.97;5021658;28;20080;-60
2022/01/06 02:56:48;;;;;;;15.23;3.80;;;;;;;0.54;100.00;101611.69;5028603;28;20030;-61
2022/01/06 02:59:14;;;;;;;12.83;3.67;;;;;;;0.54;100.00;101621.91;5028633;28;20100;-61
2022/01/06 03:01:40;;;;;;;20.27;3.87;;;;;;;0.57;100.00;101622.16;5021983;28;20104;-60
2022/01/06 03:04:06;;;;;;;17.63;3.63;;;;;;;0.57;100.00;101622.16;5027711;28;20444;-60
2022/01/06 03:06:31;;;;;;;14.87;3.20;;;;;;;0.57;100.00;101620.50;5022301;28;20105;-60
2022/01/06 03:08:57;;;;;;;14.83;4.00;;;;;;;0.52;100.00;101613.22;5027018;28;20029;-60
2022/01/06 03:11:25;;;;;;;17.80;3.40;;;;;;;0.45;100.00;101617.78;5026000;28;20033;-61
2022/01/06 03:13:52;;;;;;;16.13;3.40;;;;;;;0.43;100.00;101626.94;5018956;28;20033;-61
2022/01/06 03:16:17;;;;;;;9.77;3.23;;;;;;;0.38;100.00;101633.31;5016006;28;20064;-61
2022/01/06 03:18:42;;;;;;;18.73;3.80;;;;;;;0.39;100.00;101632.56;5018580;28;20496;-61
2022/01/06 03:21:07;;;;;;;12.03;4.00;;;;;;;0.40;100.00;101644.53;5022349;28;20040;-61
2022/01/06 03:23:33;;;;;;;18.60;3.70;;;;;;;0.38;100.00;101638.41;5023504;28;20296;-61
2022/01/06 03:25:58;;;;;;;14.03;4.27;;;;;;;0.41;100.00;101636.16;5028963;28;20520;-58
2022/01/06 03:28:23;;;;;;;17.60;4.00;;;;;;;0.41;100.00;101643.81;5028143;28;20037;-61
2022/01/06 03:30:49;;;;;;;15.23;3.40;;;;;;;0.39;100.00;101641.88;5026723;28;20040;-60
2022/01/06 03:33:14;;;;;;;16.23;3.57;;;;;;;0.33;100.00;101643.13;5032086;28;20040;-60
2022/01/06 03:35:39;;;;;;;13.83;3.70;;;;;;;0.33;100.00;101649.88;5032397;28;20510;-61
2022/01/06 03:38:05;;;;;;;19.43;3.87;;;;;;;0.33;100.00;101649.88;5031965;28;20029;-60
2022/01/06 03:40:30;;;;;;;13.47;4.43;;;;;;;0.34;100.00;101661.88;5023098;28;20029;-60
2022/01/06 03:42:56;;;;;;;14.63;3.37;;;;;;;0.34;100.00;101655.09;5025430;28;20022;-60
2022/01/06 03:45:21;;;;;;;15.23;3.47;;;;;;;0.33;100.00;101657.53;5031969;28;20449;-60
2022/01/06 03:47:47;;;;;;;19.93;3.20;;;;;;;0.32;100.00;101658.31;5031753;28;20572;-61
2022/01/06 03:50:13;;;;;;;12.93;3.10;;;;;;;0.31;100.00;101657.38;5031694;28;20025;-60
2022/01/06 03:52:39;;;;;;;12.83;3.03;;;;;;;0.29;100.00;101655.50;5030565;28;20029;-61
2022/01/06 03:55:09;;;;;;;18.03;4.23;;;;;;;0.31;100.00;101656.50;5031689;28;20079;-60
2022/01/06 03:57:35;;;;;;;14.30;3.17;;;;;;;0.33;100.00;101660.06;5031738;28;20026;-61
2022/01/06 04:00:03;;;;;;;15.17;3.67;;;;;;;0.38;100.00;101661.38;5018170;28;20025;-60
2022/01/06 04:02:29;;;;;;;17.60;3.70;;;;;;;0.40;100.00;101657.28;5024844;28;20084;-61
2022/01/06 04:04:54;;;;;;;15.00;3.23;;;;;;;0.45;100.00;101658.59;5031824;28;20025;-59
2022/01/06 04:07:19;;;;;;;15.93;3.60;;;;;;;0.50;100.00;101651.34;5031557;28;20430;-61
2022/01/06 04:09:44;;;;;;;16.27;3.17;;;;;;;0.51;100.00;101644.56;5027738;28;20033;-61
2022/01/06 04:12:11;;;;;;;15.53;3.53;;;;;;;0.54;100.00;101643.16;5026065;28;20084;-60
2022/01/06 04:14:37;;;;;;;11.23;3.63;;;;;;;0.54;100.00;101644.84;5031352;28;20029;-61
2022/01/06 04:17:06;;;;;;;15.90;3.00;;;;;;;0.54;100.00;101653.38;5028282;28;20082;-61
2022/01/06 04:19:32;;;;;;;14.27;2.93;;;;;;;0.54;100.00;101655.06;5028239;28;20458;-58
2022/01/06 04:21:57;;;;;;;18.40;3.93;;;;;;;0.55;100.00;101659.38;5017469;28;20040;-61
2022/01/06 04:24:23;;;;;;;16.53;3.70;;;;;;;0.52;100.00;101665.09;5031252;28;20034;-60
2022/01/06 04:26:48;;;;;;;17.93;3.67;;;;;;;0.54;100.00;101680.56;5022939;28;20053;-60
2022/01/06 04:29:13;;;;;;;19.73;3.80;;;;;;;0.53;100.00;101686.41;5048560;28;20481;-60
2022/01/06 04:31:39;;;;;;;19.37;3.07;;;;;;;0.50;100.00;101681.97;5046590;28;20036;-60
2022/01/06 04:34:04;;;;;;;16.00;3.53;;;;;;;0.46;100.00;101685.91;5046394;28;20070;-59
2022/01/06 04:36:29;;;;;;;19.07;3.93;;;;;;;0.45;100.00;101686.63;5037213;28;20030;-60
2022/01/06 04:38:55;;;;;;;16.10;4.13;;;;;;;0.45;100.00;101680.66;5049190;28;20031;-59
2022/01/06 04:41:20;;;;;;;15.07;4.03;;;;;;;0.44;100.00;101677.22;5037597;28;20048;-60
2022/01/06 04:43:46;;;;;;;14.40;2.97;;;;;;;0.39;100.00;101678.47;5037191;28;20136;-60
2022/01/06 04:46:11;;;;;;;19.30;3.87;;;;;;;0.36;100.00;101683.28;5050530;28;20025;-61
2022/01/06 04:48:37;;;;;;;15.83;3.00;;;;;;;0.33;100.00;101690.69;5046119;28;20572;-59
2022/01/06 04:51:03;;;;;;;16.47;2.87;;;;;;;0.27;100.00;101691.03;5037930;28;20025;-60
2022/01/06 04:53:28;;;;;;;10.73;2.83;;;;;;;0.22;100.00;101698.28;5050094;28;20029;-60
2022/01/06 04:55:56;;;;;;;14.73;3.70;;;;;;;0.21;100.00;101699.06;5049803;28;20021;-60
2022/01/06 04:58:21;;;;;;;13.23;3.20;;;;;;;0.20;100.00;101699.81;5043035;28;20442;-60
2022/01/06 05:00:46;;;;;;;22.93;4.13;;;;;;;0.18;100.00;101703.00;5034147;28;20064;-60
2022/01/06 05:03:12;;;;;;;16.80;3.47;;;;;;;0.10;100.00;101699.75;5042372;28;20409;-59
2022/01/06 05:05:37;;;;;;;19.10;3.50;;;;;;;0.06;100.00;101705.34;5037502;28;20036;-61
2022/01/06 05:08:02;;;;;;;15.80;2.67;;;;;;;0.04;100.00;101709.38;5050625;28;20021;-60
2022/01/06 05:10:28;;;;;;;16.60;3.83;;;;;;;-0.02;100.00;101714.88;5050271;28;20029;-59
2022/01/06 05:12:53;;;;;;;12.70;3.13;;;;;;;-0.09;100.00;101712.53;5041505;28;20492;-59
2022/01/06 05:15:19;;;;;;;13.87;3.03;;;;;;;-0.11;100.00;101719.13;5050561;28;20052;-60
2022/01/06 05:17:44;;;;;;;12.17;2.63;;;;;;;-0.14;100.00;101722.28;5049941;28;20116;-61
2022/01/06 05:20:10;;;;;;;16.27;2.90;;;;;;;-0.18;100.00;101723.66;5050234;28;20235;-60
2022/01/06 05:22:42;;;;;;;13.67;2.57;;;;;;;-0.20;100.00;101725.22;5034524;28;20470;-60
2022/01/06 05:25:08;;;;;;;11.23;2.63;;;;;;;-0.23;100.00;101727.44;5049880;28;20032;-60
2022/01/06 05:27:33;;;;;;;6.90;1.97;;;;;;;-0.29;100.00;101725.25;5036695;28;20065;-60
2022/01/06 05:29:58;;;;;;;9.10;2.80;;;;;;;-0.30;100.00;101736.19;5042942;28;20536;-60
2022/01/06 05:32:24;;;;;;;12.43;2.90;;;;;;;-0.32;100.00;101739.34;5024629;28;20115;-60
2022/01/06 05:34:49;;;;;;;12.40;2.47;;;;;;;-0.36;100.00;101733.13;5049650;28;20412;-60
2022/01/06 05:37:14;;;;;;;13.37;3.30;;;;;;;-0.35;100.00;101734.00;5050211;28;20064;-60
2022/01/06 05:39:40;;;;;;;12.83;2.87;;;;;;;-0.34;100.00;101736.66;5042575;28;20053;-61
2022/01/06 05:42:05;;;;;;;13.47;3.00;;;;;;;-0.32;100.00;101745.34;5037986;28;20025;-60
2022/01/06 05:44:34;;;;;;;11.60;3.70;;;;;;;-0.32;100.00;101742.81;5049608;28;20025;-59
2022/01/06 05:46:59;;;;;;;12.83;2.87;;;;;;;-0.34;100.00;101744.31;5037029;28;20504;-61
2022/01/06 05:49:24;;;;;;;10.23;2.83;;;;;;;-0.35;100.00;101750.19;5036684;28;20021;-60
2022/01/06 05:51:50;;;;;;;15.03;3.37;;;;;;;-0.36;100.00;101750.94;5038562;28;20029;-60
2022/01/06 05:54:15;;;;;;;9.83;3.17;;;;;;;-0.36;100.00;101750.94;5042222;28;20347;-60
2022/01/06 05:56:40;;;;;;;12.30;3.70;;;;;;;-0.35;100.00;101755.28;5036023;28;20020;-59
2022/01/06 05:59:05;;;;;;;9.33;3.13;;;;;;;-0.36;100.00;101756.03;5049423;28;20461;-59
2022/01/06 06:01:32;;;;;;;7.33;2.70;;;;;;;-0.41;100.00;101753.06;5038210;28;20082;-60
2022/01/06 06:03:57;;;;;;;13.40;4.00;;;;;;;-0.43;100.00;101757.09;5036087;28;20388;-60
2022/01/06 06:06:22;;;;;;;6.33;2.67;;;;;;;-0.45;100.00;101762.84;5049508;28;20111;-60
2022/01/06 06:08:47;;;;;;;18.83;3.77;;;;;;;-0.50;100.00;101767.47;5049196;28;20439;-60
2022/01/06 06:11:13;;;;;;;8.60;2.53;;;;;;;-0.55;100.00;101777.25;5040858;28;20036;-61
2022/01/06 06:13:38;;;;;;;13.17;2.87;;;;;;;-0.59;100.00;101775.19;5046197;28;20025;-59
2022/01/06 06:16:04;;;;;;;13.37;2.93;;;;;;;-0.62;100.00;101780.00;5045674;28;20170;-60
2022/01/06 06:18:29;;;;;;;14.50;3.07;;;;;;;-0.64;100.00;101776.41;5042510;28;20021;-60
2022/01/06 06:20:55;;;;;;;11.20;3.40;;;;;;;-0.69;100.00;101777.63;5040189;28;20492;-60
2022/01/06 06:23:20;;;;;;;12.60;3.07;;;;;;;-0.68;100.00;101784.50;5044378;28;20033;-60
2022/01/06 06:25:45;;;;;;;15.23;2.87;;;;;;;-0.71;100.00;101786.78;5041062;28;20100;-60
2022/01/06 06:28:11;;;;;;;13.27;3.00;;;;;;;-0.75;100.00;101794.13;5041715;28;20025;-59
2022/01/06 06:30:36;;;;;;;6.47;2.57;;;;;;;-0.77;100.00;101789.63;5029170;28;20037;-60
2022/01/06 06:33:01;;;;;;;9.97;2.90;;;;;;;-0.80;100.00;101797.00;5023692;28;20048;-60
2022/01/06 06:35:28;;;;;;;10.23;3.23;;;;;;;-0.83;100.00;101797.63;5028898;28;20029;-60
2022/01/06 06:37:54;;;;;;;9.30;3.17;;;;;;;-0.84;100.00;101803.44;5016204;28;20427;-60
2022/01/06 06:40:22;;;;;;;8.93;3.10;;;;;;;-0.85;100.00;101794.03;5029115;28;20075;-60
2022/01/06 06:42:47;;;;;;;12.47;2.80;;;;;;;-0.84;100.00;101795.81;5019159;28;20070;-60
2022/01/06 06:45:13;;;;;;;9.33;2.73;;;;;;;-0.86;100.00;101789.66;5028893;28;20025;-60
2022/01/06 06:47:38;;;;;;;8.50;3.13;;;;;;;-0.89;100.00;101799.56;5016952;28;20030;-61
2022/01/06 06:50:04;;;;;;;11.07;3.43;;;;;;;-0.90;100.00;101797.78;5028075;28;20483;-58
2022/01/06 06:52:29;;;;;;;10.73;3.33;;;;;;;-0.89;100.00;101804.66;5026551;28;20079;-60
2022/01/06 06:54:55;;;;;;;9.53;3.27;;;;;;;-0.90;100.00;101805.44;5022174;28;20036;-59
2022/01/06 06:57:20;;;;;;;8.90;3.60;;;;;;;-0.93;100.00;101815.28;5004383;28;20136;-60
2022/01/06 06:59:46;;;;;;;10.27;2.90;;;;;;;-0.95;100.00;101820.25;5018359;28;20397;-60
2022/01/06 07:02:11;;;;;;;11.93;3.30;;;;;;;-0.99;100.00;101824.16;5010282;28;20044;-60
2022/01/06 07:04:36;;;;;;;16.10;4.10;;;;;;;-0.97;100.00;101820.09;5011964;28;20032;-60
2022/01/06 07:07:02;;;;;;;13.10;3.67;;;;;;;-0.93;100.00;101822.94;5015497;28;20068;-61
2022/01/06 07:09:27;;;;;;;10.17;2.97;;;;;;;-0.97;100.00;101822.66;5011276;28;20099;-63
2022/01/06 07:11:53;;;;;;;12.33;3.10;;;;;;;-1.00;100.00;101832.56;5009019;28;20164;-60
2022/01/06 07:14:18;;;;;;;12.87;4.97;;;;;;;-1.00;100.00;101832.56;5028733;28;20032;-60
2022/01/06 07:16:43;;;;;;;12.60;4.63;;;;;;;-1.00;100.00;101837.63;5025462;28;20490;-60
2022/01/06 07:19:08;;;;;;;14.73;3.60;;;;;;;-1.03;100.00;101841.53;5032504;28;20108;-61
2022/01/06 07:21:34;;;;;;;12.30;4.53;;;;;;;-1.06;100.00;101857.41;5026575;28;20034;-59
2022/01/06 07:23:59;;;;;;;16.00;3.70;;;;;;;-1.06;100.00;101857.41;5014137;28;20084;-59
2022/01/06 07:26:24;;;;;;;13.97;3.47;;;;;;;-1.02;100.00;101856.94;4997085;28;20021;-60
2022/01/06 07:28:50;;;;;;;14.13;4.57;;;;;;;-0.99;100.00;101869.97;5002024;28;20138;-58
2022/01/06 07:31:15;;;;;;;12.50;5.03;;;;;;;-1.00;100.00;101858.00;5018007;28;20050;-60
2022/01/06 07:33:41;;;;;;;10.77;4.57;;;;;;;-1.00;100.00;101857.09;5023423;28;20029;-59
2022/01/06 07:36:07;;;;;;;11.87;3.97;;;;;;;-1.00;100.00;101862.19;5024345;28;20033;-60
2022/01/06 07:38:32;;;;;;;18.17;4.67;;;;;;;-1.00;100.00;101863.09;5013594;28;20018;-58
2022/01/06 07:40:58;;;;;;;13.50;4.10;;;;;;;-0.98;100.00;101871.78;5011270;28;20032;-59
2022/01/06 07:43:23;;;;;;;8.83;3.77;;;;;;;-0.99;100.00;101869.97;5023891;28;20075;-59
2022/01/06 07:45:49;;;;;;;12.07;3.40;;;;;;;-0.99;100.00;101871.63;5025515;28;20025;-59
2022/01/06 07:48:17;;;;;;;11.43;3.87;;;;;;;-1.01;100.00;101871.47;5029691;28;20120;-59
2022/01/06 07:50:45;;;;;;;12.10;3.47;;;;;;;-1.04;100.00;101867.75;5022700;28;20026;-60
2022/01/06 07:53:10;;;;;;;10.77;3.67;;;;;;;-1.05;100.00;101868.47;5011399;28;20434;-60
2022/01/06 07:55:36;;;;;;;12.67;3.80;;;;;;;-1.06;100.00;101871.78;5019582;28;20022;-60
2022/01/06 07:58:02;;;;;;;18.23;3.73;;;;;;;-1.05;100.00;101874.47;5010191;28;20030;-60
2022/01/06 08:00:27;;;;;;;19.03;4.40;;;;;;;-1.07;100.00;101869.97;5014152;28;20293;-60
2022/01/06 08:02:53;;;;;;;13.30;3.77;;;;;;;-1.07;100.00;101872.53;5017347;28;20030;-59
2022/01/06 08:05:22;;;;;;;16.93;4.03;;;;;;;-1.06;100.00;101875.22;5023394;28;20033;-60
2022/01/06 08:07:47;;;;;;;15.10;4.40;;;;;;;-1.04;100.00;101877.94;5025858;28;20036;-60
2022/01/06 08:10:13;;;;;;;16.07;4.00;;;;;;;-1.03;100.00;101875.53;5028368;28;20150;-61
2022/01/06 08:12:39;;;;;;;14.57;4.13;;;;;;;-1.01;100.00;101871.47;5031621;28;20261;-60
2022/01/06 08:15:05;;;;;;;13.93;4.07;;;;;;;-0.94;100.00;101877.16;5031436;28;20021;-61
2022/01/06 08:17:31;;;;;;;18.30;4.13;;;;;;;-0.89;100.00;101881.03;5023553;28;20025;-61
2022/01/06 08:19:57;;;;;;;12.67;3.87;;;;;;;-0.85;100.00;101886.53;5031017;28;20029;-60
2022/01/06 08:22:22;;;;;;;14.77;3.77;;;;;;;-0.82;100.00;101888.50;5031219;28;20421;-61
2022/01/06 08:24:48;;;;;;;13.63;3.40;;;;;;;-0.78;100.00;101887.16;5031049;28;20276;-60
2022/01/06 08:27:13;;;;;;;8.27;3.37;;;;;;;-0.76;100.00;101884.00;5028360;28;20029;-60
2022/01/06 08:29:40;;;;;;;18.77;4.83;;;;;;;-0.70;100.00;101882.78;5030961;28;20045;-59
2022/01/06 08:32:06;;;;;;;20.37;5.47;;;;;;;-0.64;100.00;101885.91;5021153;28;20069;-60
2022/01/06 08:34:34;;;;;;;19.83;5.63;;;;;;;-0.57;100.00;101883.19;5024730;28;20053;-60
2022/01/06 08:36:59;;;;;;;18.37;6.83;;;;;;;-0.52;100.00;101884.50;5021544;28;20080;-60
2022/01/06 08:39:24;;;;;;;20.33;6.33;;;;;;;-0.46;100.00;101886.72;5031103;28;20037;-60
2022/01/06 08:41:51;;;;;;;20.67;7.07;;;;;;;-0.38;100.00;101892.56;5025093;28;20104;-60
2022/01/06 08:44:16;;;;;;;25.50;8.43;;;;;;;-0.32;100.00;101887.13;5030100;28;20060;-60
2022/01/06 08:46:42;;;;;;;26.57;7.93;;;;;;;-0.25;100.00;101887.84;5025245;28;20061;-60
2022/01/06 08:49:11;;;;;;;20.17;7.60;;;;;;;-0.18;100.00;101896.06;5025816;28;20044;-60
2022/01/06 08:51:37;;;;;;;19.90;7.90;;;;;;;-0.09;100.00;101896.03;5030513;28;20029;-59
2022/01/06 08:54:03;;;;;;;16.73;7.77;;;;;;;0.01;100.00;101895.19;5028267;28;20562;-61
2022/01/06 08:56:28;;;;;;;18.80;7.87;;;;;;;0.12;100.00;101902.19;5025355;28;20367;-61
2022/01/06 08:58:55;;;;;;;21.10;8.00;;;;;;;0.21;100.00;101897.94;5028589;28;20092;-60
2022/01/06 09:01:20;;;;;;;19.20;7.40;;;;;;;0.35;100.00;101900.84;5030243;28;20044;-60
2022/01/06 09:03:46;;;;;;;20.73;7.30;;;;;;;0.45;100.00;101898.34;5030380;28;20025;-61
2022/01/06 09:06:11;;;;;;;17.47;7.60;;;;;;;0.51;100.00;101908.22;5024759;28;20445;-60
2022/01/06 09:08:36;;;;;;;13.37;6.80;;;;;;;0.53;100.00;101906.72;5026866;28;20040;-60
2022/01/06 09:11:02;;;;;;;14.47;6.73;;;;;;;0.51;100.00;101904.75;5030085;28;20025;-58
2022/01/06 09:13:27;;;;;;;20.87;7.43;;;;;;;0.52;100.00;101917.66;5028539;28;20029;-59
2022/01/06 09:15:53;;;;;;;17.87;6.93;;;;;;;0.52;100.00;101915.09;5027885;28;20021;-60
2022/01/06 09:18:19;;;;;;;20.30;8.47;;;;;;;0.54;100.00;101920.38;5013673;28;20030;-60
2022/01/06 09:20:44;;;;;;;23.63;9.77;;;;;;;0.54;100.00;101920.38;5014902;28;20065;-60
2022/01/06 09:23:09;;;;;;;24.13;10.30;;;;;;;0.57;100.00;101918.09;5029665;28;20134;-59
2022/01/06 09:25:35;;;;;;;20.73;9.97;;;;;;;0.59;100.00;101926.78;5026328;28;20029;-59
2022/01/06 09:28:00;;;;;;;23.27;9.50;;;;;;;0.62;100.00;101921.94;5025455;28;20055;-60
2022/01/06 09:30:26;;;;;;;16.77;8.83;;;;;;;0.64;100.00;101928.09;5031630;28;20497;-61
2022/01/06 09:32:53;;;;;;;21.73;8.63;;;;;;;0.66;100.00;101929.13;5023852;28;20036;-61
2022/01/06 09:35:19;;;;;;;22.23;9.33;;;;;;;0.71;100.00;101932.09;5017154;28;20033;-61
2022/01/06 09:37:44;;;;;;;20.67;9.43;;;;;;;0.73;100.00;101940.78;5017566;28;20026;-60
2022/01/06 09:40:10;;;;;;;16.90;8.50;;;;;;;0.77;100.00;101941.94;5029846;28;20021;-59
2022/01/06 09:42:36;;;;;;;24.63;9.53;;;;;;;0.78;100.00;101941.19;5029791;28;20028;-59
2022/01/06 09:45:04;;;;;;;19.80;8.60;;;;;;;0.82;100.00;101940.72;5029388;28;20025;-60
2022/01/06 09:47:32;;;;;;;27.33;8.93;;;;;;;0.85;100.00;101940.97;5024220;28;20580;-59
2022/01/06 09:49:57;;;;;;;19.53;8.90;;;;;;;0.90;100.00;101951.59;5023530;28;20425;-60
2022/01/06 09:52:23;;;;;;;20.53;8.77;;;;;;;0.91;100.00;101946.63;5013191;28;20093;-59
2022/01/06 09:54:49;;;;;;;18.50;9.30;;;;;;;0.96;100.00;101949.59;5028135;28;20059;-59
2022/01/06 09:57:14;;;;;;;18.80;9.27;;;;;;;1.02;100.00;101951.78;5025510;28;20481;-59
2022/01/06 09:59:43;;;;;;;20.50;9.90;;;;;;;1.07;100.00;101948.00;5022890;28;20025;-60
2022/01/06 10:02:16;;;;;;;18.23;9.40;;;;;;;1.13;100.00;101951.09;5029167;28;20029;-61
2022/01/06 10:04:45;;;;;;;16.50;8.87;;;;;;;1.19;100.00;101946.53;5028913;28;20478;-59
2022/01/06 10:07:11;;;;;;;18.50;9.37;;;;;;;1.28;100.00;101948.97;5027209;28;20018;-61
2022/01/06 10:09:39;;;;;;;16.13;8.63;;;;;;;1.34;100.00;101943.53;5029331;28;20044;-60
2022/01/06 10:12:11;;;;;;;17.57;8.00;;;;;;;1.41;100.00;101943.28;5029090;28;20029;-60
2022/01/06 10:14:44;;;;;;;19.60;9.60;;;;;;;1.50;100.00;101944.84;5029286;28;20397;-60
2022/01/06 10:17:11;;;;;;;20.97;7.90;;;;;;;1.60;100.00;101946.56;5023405;28;20052;-60
2022/01/06 10:19:41;;;;;;;15.37;7.90;;;;;;;1.66;100.00;101947.97;5026732;28;20026;-61
2022/01/06 10:22:18;;;;;;;17.83;7.80;;;;;;;1.74;100.00;101940.97;5029265;28;20026;-60
2022/01/06 10:24:45;;;;;;;18.30;7.60;;;;;;;1.84;100.00;101945.19;5029054;28;20061;-60
2022/01/06 10:27:12;;;;;;;17.47;8.17;;;;;;;1.91;100.00;101936.38;5022600;28;20022;-60
2022/01/06 10:29:44;;;;;;;19.13;8.47;;;;;;;2.00;100.00;101943.94;5030216;28;20049;-61
2022/01/06 10:32:12;;;;;;;16.87;7.17;;;;;;;2.07;100.00;101945.38;5048832;28;20120;-60
2022/01/06 10:34:41;;;;;;;16.80;7.00;;;;;;;2.11;100.00;101937.19;5048957;28;20394;-61
2022/01/06 10:37:22;;;;;;;20.40;7.00;;;;;;;2.20;100.00;101932.84;5043732;28;20021;-61
2022/01/06 10:39:49;;;;;;;17.63;7.55;;;;;;;2.28;100.00;101936.06;5049929;28;20098;-60
2022/01/06 10:42:15;;;;;;;16.83;6.70;;;;;;;2.34;100.00;101934.00;5041192;28;20029;-59
2022/01/06 10:44:57;;;;;;;16.93;6.60;;;;;;;2.42;100.00;101928.63;5035209;28;20071;-60
2022/01/06 10:47:52;;;;;;;20.80;6.67;;;;;;;2.55;100.00;101935.66;5037370;28;20064;-60
2022/01/06 10:50:25;;;;;;;17.40;6.63;;;;;;;2.67;100.00;101931.53;5046863;28;20447;-59
2022/01/06 10:52:53;;;;;;;17.17;5.83;;;;;;;2.79;100.00;101935.88;5051341;28;20037;-61
2022/01/06 10:55:23;;;;;;;16.40;5.90;;;;;;;2.88;100.00;101942.63;5048892;28;20029;-61
2022/01/06 10:57:52;;;;;;;15.40;5.30;;;;;;;2.99;100.00;101940.94;5043708;28;20067;-61
2022/01/06 11:00:19;;;;;;;13.63;4.33;;;;;;;3.10;100.00;101933.22;5036240;28;20473;-62
2022/01/06 11:02:44;;;;;;;12.73;4.60;;;;;;;3.21;100.00;101924.75;5037459;28;20200;-60
2022/01/06 11:05:09;;;;;;;13.90;5.10;;;;;;;3.31;100.00;101928.91;5034985;28;20097;-59
2022/01/06 11:07:35;;;;;;;15.30;4.60;;;;;;;3.38;100.00;101921.72;5034968;28;20028;-60
2022/01/06 11:10:03;;;;;;;15.77;4.77;;;;;;;3.45;100.00;101924.00;5036675;28;20553;-61
2022/01/06 11:12:30;;;;;;;14.97;4.67;;;;;;;3.48;100.00;101920.00;5033648;28;20045;-61
2022/01/06 11:14:56;;;;;;;14.53;4.33;;;;;;;3.52;100.00;101921.13;5036371;28;20489;-60
2022/01/06 11:17:23;;;;;;;16.37;6.30;;;;;;;3.58;100.00;101919.03;5035335;28;20049;-61
2022/01/06 11:19:52;;;;;;;16.17;4.47;;;;;;;3.63;100.00;101913.38;5034985;28;20067;-61